Time;durP1;ratioP1;P1;durP2;ratioP2;P2;SDS_P1;SDS_P2;PMS_P1;PMS_P2;Temp;Humidity;BMP_temperature;BMP_pressure;BME280_temperature;BME280_humidity;BME280_pressure;Samples;Min_cycle;Max_cycle;Signal;HPM_P1;HPM_P2
2021/05/08 00:00:18;;;;;;;8.27;3.20;;;;;;;;;;5062274;28;20232;-76
2021/05/08 00:02:45;;;;;;;5.83;2.53;;;;;;;;;;5057385;28;20282;-76
2021/05/08 00:05:12;;;;;;;11.13;2.90;;;;;;;;;;5090262;28;20290;-76
2021/05/08 00:07:39;;;;;;;7.73;2.80;;;;;;;;;;5072444;28;20735;-76
2021/05/08 00:10:08;;;;;;;4.10;2.73;;;;;;;;;;5071571;28;20352;-76
2021/05/08 00:12:35;;;;;;;8.47;2.90;;;;;;;;;;5054319;28;20220;-76
2021/05/08 00:15:02;;;;;;;8.87;2.80;;;;;;;;;;5060484;28;20288;-76
2021/05/08 00:17:28;;;;;;;5.57;2.70;;;;;;;;;;5067298;28;20256;-76
2021/05/08 00:19:55;;;;;;;7.43;2.30;;;;;;;;;;5070478;28;20599;-76
2021/05/08 00:22:22;;;;;;;8.17;2.70;;;;;;;;;;5070769;28;20232;-76
2021/05/08 00:24:48;;;;;;;8.60;2.73;;;;;;;;;;5064410;28;20209;-76
2021/05/08 00:27:16;;;;;;;7.60;2.83;;;;;;;;;;5065077;28;20243;-76
2021/05/08 00:29:43;;;;;;;10.53;2.83;;;;;;;;;;5062518;28;20293;-76
2021/05/08 00:32:09;;;;;;;6.53;2.90;;;;;;;;;;5071983;28;20239;-76
2021/05/08 00:34:36;;;;;;;7.13;2.60;;;;;;;;;;5071575;28;20236;-75
2021/05/08 00:37:03;;;;;;;5.03;2.87;;;;;;;;;;5077984;28;20684;-76
2021/05/08 00:39:29;;;;;;;8.70;3.10;;;;;;;;;;5090135;28;20282;-76
2021/05/08 00:41:57;;;;;;;10.47;3.20;;;;;;;;;;5073971;28;20202;-76
2021/05/08 00:44:25;;;;;;;8.17;2.73;;;;;;;;;;5051735;28;20200;-76
2021/05/08 00:46:52;;;;;;;8.50;3.10;;;;;;;;;;5051216;28;20203;-76
2021/05/08 00:49:21;;;;;;;7.90;3.20;;;;;;;;;;5066594;28;20208;-76
2021/05/08 00:51:47;;;;;;;6.60;3.30;;;;;;;;;;5071720;28;20207;-76
2021/05/08 00:54:14;;;;;;;9.60;3.23;;;;;;;;;;5065858;28;20220;-76
2021/05/08 00:56:41;;;;;;;6.93;2.70;;;;;;;;;;5051678;28;20283;-76
2021/05/08 00:59:08;;;;;;;9.33;2.93;;;;;;;;;;5057623;28;20219;-75
2021/05/08 01:01:36;;;;;;;9.63;3.63;;;;;;;;;;5088931;28;20203;-76
2021/05/08 01:04:03;;;;;;;9.57;3.67;;;;;;;;;;5091694;28;20341;-76
2021/05/08 01:06:31;;;;;;;8.07;3.27;;;;;;;;;;5073829;28;20286;-76
2021/05/08 01:08:57;;;;;;;12.43;3.83;;;;;;;;;;5072036;28;20204;-75
2021/05/08 01:11:24;;;;;;;8.70;3.17;;;;;;;;;;5071433;28;20295;-76
2021/05/08 01:13:51;;;;;;;10.07;3.87;;;;;;;;;;5071703;28;20759;-75
2021/05/08 01:16:18;;;;;;;9.70;4.03;;;;;;;;;;5071751;28;20245;-76
2021/05/08 01:18:51;;;;;;;8.97;4.23;;;;;;;;;;5068543;28;20248;-77
2021/05/08 01:21:20;;;;;;;10.80;3.77;;;;;;;;;;5051310;28;20203;-76
2021/05/08 01:23:47;;;;;;;8.13;3.57;;;;;;;;;;5061958;28;20206;-76
2021/05/08 01:26:13;;;;;;;10.50;3.77;;;;;;;;;;5071360;28;20303;-76
2021/05/08 01:28:40;;;;;;;8.47;3.30;;;;;;;;;;5058351;28;20611;-75
2021/05/08 01:31:07;;;;;;;11.33;4.23;;;;;;;;;;5064605;28;20210;-76
2021/05/08 01:33:34;;;;;;;7.67;4.03;;;;;;;;;;5067787;28;20248;-76
2021/05/08 01:36:01;;;;;;;8.83;3.83;;;;;;;;;;5062115;28;20672;-76
2021/05/08 01:38:30;;;;;;;11.47;4.77;;;;;;;;;;5051335;28;20242;-76
2021/05/08 01:41:00;;;;;;;11.27;4.23;;;;;;;;;;5051480;28;20290;-76
2021/05/08 01:43:27;;;;;;;12.57;4.70;;;;;;;;;;5078841;28;20291;-75
2021/05/08 01:45:54;;;;;;;11.17;4.63;;;;;;;;;;5071084;28;20299;-75
2021/05/08 01:48:21;;;;;;;7.33;4.40;;;;;;;;;;5071327;28;20298;-76
2021/05/08 01:50:47;;;;;;;12.00;4.73;;;;;;;;;;5070885;28;20290;-76
2021/05/08 01:53:14;;;;;;;8.70;4.47;;;;;;;;;;5061865;28;20786;-76
2021/05/08 01:55:42;;;;;;;12.23;4.60;;;;;;;;;;5068285;28;20283;-76
2021/05/08 01:58:08;;;;;;;11.03;4.93;;;;;;;;;;5090684;28;20230;-76
2021/05/08 02:00:36;;;;;;;8.57;4.37;;;;;;;;;;5095055;28;20312;-76
2021/05/08 02:03:04;;;;;;;9.50;4.90;;;;;;;;;;5094548;28;20205;-75
2021/05/08 02:05:31;;;;;;;12.47;4.30;;;;;;;;;;5091170;28;20278;-76
2021/05/08 02:08:00;;;;;;;8.43;4.47;;;;;;;;;;5056441;28;20238;-76
2021/05/08 02:10:27;;;;;;;8.70;4.37;;;;;;;;;;5071824;28;20362;-75
2021/05/08 02:12:55;;;;;;;10.10;4.70;;;;;;;;;;5074726;28;20311;-76
2021/05/08 02:15:21;;;;;;;10.83;4.83;;;;;;;;;;5074573;28;20298;-75
2021/05/08 02:17:48;;;;;;;10.63;4.33;;;;;;;;;;5074145;28;20296;-76
2021/05/08 02:20:16;;;;;;;9.87;4.47;;;;;;;;;;5089071;28;20236;-76
2021/05/08 02:22:44;;;;;;;10.17;4.70;;;;;;;;;;5075103;28;20237;-75
2021/05/08 02:25:12;;;;;;;12.23;5.10;;;;;;;;;;5078451;28;20209;-75
2021/05/08 02:27:39;;;;;;;11.83;5.00;;;;;;;;;;5089967;28;20215;-76
2021/05/08 02:30:07;;;;;;;10.03;5.40;;;;;;;;;;5086743;28;20720;-76
2021/05/08 02:32:34;;;;;;;12.87;5.30;;;;;;;;;;5074563;28;20309;-76
2021/05/08 02:35:01;;;;;;;10.87;5.53;;;;;;;;;;5073458;28;20297;-76
2021/05/08 02:37:27;;;;;;;10.90;5.17;;;;;;;;;;5073705;28;20282;-76
2021/05/08 02:39:54;;;;;;;13.63;5.57;;;;;;;;;;5074115;28;20337;-76
2021/05/08 02:42:21;;;;;;;9.40;5.20;;;;;;;;;;5058391;28;20208;-76
2021/05/08 02:44:47;;;;;;;11.17;5.27;;;;;;;;;;5053830;28;20235;-76
2021/05/08 02:47:18;;;;;;;14.00;5.33;;;;;;;;;;5054062;28;20236;-76
2021/05/08 02:49:45;;;;;;;10.53;5.40;;;;;;;;;;5073936;28;20204;-75
2021/05/08 02:52:12;;;;;;;12.53;5.57;;;;;;;;;;5053938;28;20234;-75
2021/05/08 02:54:39;;;;;;;10.73;5.40;;;;;;;;;;5053323;28;20233;-76
2021/05/08 02:57:06;;;;;;;11.23;6.13;;;;;;;;;;5054103;28;20201;-76
2021/05/08 02:59:32;;;;;;;15.07;5.90;;;;;;;;;;5052552;28;20241;-76
2021/05/08 03:02:00;;;;;;;12.77;5.87;;;;;;;;;;5072492;28;20233;-75
2021/05/08 03:04:28;;;;;;;8.63;5.30;;;;;;;;;;5072999;28;20690;-75
2021/05/08 03:06:54;;;;;;;13.63;6.17;;;;;;;;;;5074139;28;20248;-76
2021/05/08 03:09:21;;;;;;;11.60;5.60;;;;;;;;;;5071605;28;20235;-75
2021/05/08 03:11:48;;;;;;;13.27;5.77;;;;;;;;;;5064967;28;20906;-76
2021/05/08 03:14:14;;;;;;;11.10;6.20;;;;;;;;;;5073544;28;20270;-76
2021/05/08 03:16:42;;;;;;;10.53;6.20;;;;;;;;;;5073026;28;21028;-76
2021/05/08 03:19:09;;;;;;;15.07;6.53;;;;;;;;;;5073757;28;20207;-75
2021/05/08 03:21:37;;;;;;;10.67;6.10;;;;;;;;;;5073499;28;20231;-76
2021/05/08 03:24:04;;;;;;;11.87;6.73;;;;;;;;;;5058839;28;20286;-75
2021/05/08 03:26:31;;;;;;;14.77;6.23;;;;;;;;;;5060556;28;20220;-75
2021/05/08 03:28:58;;;;;;;11.50;6.33;;;;;;;;;;5093089;28;20203;-75
2021/05/08 03:31:24;;;;;;;12.20;6.57;;;;;;;;;;5074413;28;20281;-76
2021/05/08 03:33:51;;;;;;;14.43;6.77;;;;;;;;;;5053052;28;20229;-75
2021/05/08 03:36:18;;;;;;;13.13;6.27;;;;;;;;;;5053291;28;20261;-76
2021/05/08 03:38:46;;;;;;;14.90;7.47;;;;;;;;;;5053221;28;20640;-76
2021/05/08 03:41:12;;;;;;;15.83;7.23;;;;;;;;;;5054854;28;20263;-76
2021/05/08 03:43:39;;;;;;;16.97;7.10;;;;;;;;;;5073018;28;20621;-76
2021/05/08 03:46:06;;;;;;;15.57;7.43;;;;;;;;;;5072623;28;20284;-75
2021/05/08 03:48:32;;;;;;;11.67;6.87;;;;;;;;;;5073011;28;20228;-75
2021/05/08 03:50:59;;;;;;;15.47;6.90;;;;;;;;;;5056869;28;20214;-76
2021/05/08 03:53:26;;;;;;;15.07;7.40;;;;;;;;;;5067306;28;20224;-75
2021/05/08 03:55:54;;;;;;;13.10;7.17;;;;;;;;;;5072733;28;20202;-75
2021/05/08 03:58:24;;;;;;;12.33;6.77;;;;;;;;;;5091549;28;20217;-75
2021/05/08 04:00:51;;;;;;;14.53;7.20;;;;;;;;;;5072306;28;20284;-76
2021/05/08 04:03:18;;;;;;;13.67;6.83;;;;;;;;;;5058422;28;20239;-75
2021/05/08 04:05:44;;;;;;;17.07;7.10;;;;;;;;;;5052435;28;20317;-76
2021/05/08 04:08:11;;;;;;;14.43;6.87;;;;;;;;;;5057938;28;20260;-76
2021/05/08 04:10:38;;;;;;;13.20;7.23;;;;;;;;;;5053685;28;20705;-76
2021/05/08 04:13:06;;;;;;;13.93;7.67;;;;;;;;;;5057530;28;20304;-76
2021/05/08 04:15:32;;;;;;;18.57;7.57;;;;;;;;;;5052391;28;20536;-75
2021/05/08 04:17:59;;;;;;;17.43;8.00;;;;;;;;;;5052730;28;20289;-77
2021/05/08 04:20:26;;;;;;;17.23;7.67;;;;;;;;;;5092337;28;20654;-76
2021/05/08 04:22:53;;;;;;;16.77;7.77;;;;;;;;;;5091650;28;20731;-75
2021/05/08 04:25:20;;;;;;;16.80;8.47;;;;;;;;;;5071004;28;20285;-76
2021/05/08 04:27:46;;;;;;;15.77;8.50;;;;;;;;;;5077521;28;20672;-75
2021/05/08 04:30:15;;;;;;;17.20;7.90;;;;;;;;;;5085768;28;20236;-76
2021/05/08 04:32:42;;;;;;;17.70;8.00;;;;;;;;;;5072119;28;20289;-76
2021/05/08 04:35:09;;;;;;;19.13;8.07;;;;;;;;;;5072082;28;20288;-75
2021/05/08 04:37:35;;;;;;;15.30;8.13;;;;;;;;;;5072087;28;20288;-76
2021/05/08 04:40:02;;;;;;;14.93;8.27;;;;;;;;;;5072318;28;20617;-75
2021/05/08 04:42:29;;;;;;;18.37;8.83;;;;;;;;;;5071333;28;20293;-75
2021/05/08 04:44:55;;;;;;;17.97;8.10;;;;;;;;;;5071851;28;20308;-75
2021/05/08 04:47:23;;;;;;;20.03;8.50;;;;;;;;;;5064427;28;20290;-75
2021/05/08 04:49:51;;;;;;;14.97;8.53;;;;;;;;;;5090528;28;20573;-75
2021/05/08 04:52:18;;;;;;;17.73;7.53;;;;;;;;;;5072070;28;20577;-76
2021/05/08 04:54:45;;;;;;;15.67;8.00;;;;;;;;;;5071930;28;20197;-76
2021/05/08 04:57:11;;;;;;;15.73;8.40;;;;;;;;;;5076718;28;20229;-76
2021/05/08 04:59:38;;;;;;;17.60;8.17;;;;;;;;;;5080682;28;20332;-75
2021/05/08 05:02:05;;;;;;;15.27;8.67;;;;;;;;;;5104063;28;20258;-75
2021/05/08 05:04:32;;;;;;;16.80;8.00;;;;;;;;;;5054688;28;20203;-75
2021/05/08 05:07:00;;;;;;;15.80;8.27;;;;;;;;;;5072072;28;20306;-75
2021/05/08 05:09:28;;;;;;;14.80;8.23;;;;;;;;;;5071657;28;20229;-76
2021/05/08 05:11:54;;;;;;;18.93;8.27;;;;;;;;;;5066775;28;20234;-75
2021/05/08 05:14:21;;;;;;;16.23;8.67;;;;;;;;;;5091541;28;20261;-75
2021/05/08 05:16:48;;;;;;;21.03;8.37;;;;;;;;;;5080116;28;20272;-76
2021/05/08 05:19:15;;;;;;;19.87;8.20;;;;;;;;;;5076735;28;20205;-75
2021/05/08 05:21:42;;;;;;;19.13;9.23;;;;;;;;;;5091761;28;20208;-76
2021/05/08 05:24:11;;;;;;;18.20;8.37;;;;;;;;;;5073621;28;20287;-75
2021/05/08 05:26:38;;;;;;;21.07;8.23;;;;;;;;;;5061530;28;20218;-75
2021/05/08 05:29:07;;;;;;;21.60;9.03;;;;;;;;;;5051371;28;20245;-76
2021/05/08 05:31:33;;;;;;;16.67;7.73;;;;;;;;;;5068332;28;20715;-76
2021/05/08 05:34:00;;;;;;;19.43;7.57;;;;;;;;;;5074517;28;20309;-75
2021/05/08 05:36:27;;;;;;;17.67;8.23;;;;;;;;;;5075408;28;20288;-76
2021/05/08 05:38:55;;;;;;;19.83;8.33;;;;;;;;;;5075021;28;20203;-76
2021/05/08 05:41:21;;;;;;;17.27;8.10;;;;;;;;;;5075441;28;20238;-76
2021/05/08 05:43:48;;;;;;;16.97;7.70;;;;;;;;;;5075092;28;20290;-76
2021/05/08 05:46:15;;;;;;;20.27;8.10;;;;;;;;;;5075230;28;20226;-76
2021/05/08 05:48:41;;;;;;;17.87;7.73;;;;;;;;;;5075300;28;20289;-75
2021/05/08 05:51:08;;;;;;;17.97;8.47;;;;;;;;;;5075294;28;20282;-76
2021/05/08 05:53:35;;;;;;;21.07;7.83;;;;;;;;;;5074951;28;20219;-75
2021/05/08 05:56:03;;;;;;;20.27;8.53;;;;;;;;;;5074864;28;20294;-75
2021/05/08 05:58:30;;;;;;;17.57;8.47;;;;;;;;;;5075110;28;20222;-75
2021/05/08 06:00:56;;;;;;;19.43;7.83;;;;;;;;;;5073920;28;20317;-76
2021/05/08 06:03:24;;;;;;;17.47;7.50;;;;;;;;;;5057323;28;20204;-76
2021/05/08 06:05:50;;;;;;;13.23;6.97;;;;;;;;;;5060602;28;20267;-76
2021/05/08 06:08:17;;;;;;;16.73;7.33;;;;;;;;;;5093999;28;20302;-76
2021/05/08 06:10:45;;;;;;;14.50;6.40;;;;;;;;;;5094809;28;20289;-76
2021/05/08 06:13:13;;;;;;;15.23;6.47;;;;;;;;;;5079405;28;20701;-75
2021/05/08 06:15:40;;;;;;;14.47;6.50;;;;;;;;;;5074845;28;20723;-75
2021/05/08 06:18:06;;;;;;;14.23;6.47;;;;;;;;;;5077642;28;20206;-76
2021/05/08 06:20:33;;;;;;;11.43;5.93;;;;;;;;;;5095108;28;20259;-75
2021/05/08 06:23:00;;;;;;;13.17;6.40;;;;;;;;;;5077401;28;20233;-76
2021/05/08 06:25:26;;;;;;;12.67;5.60;;;;;;;;;;5074259;28;20717;-77
2021/05/08 06:27:53;;;;;;;12.40;6.20;;;;;;;;;;5078962;28;20713;-77
2021/05/08 06:30:21;;;;;;;13.33;5.93;;;;;;;;;;5066361;28;20206;-76
2021/05/08 06:32:48;;;;;;;11.17;5.73;;;;;;;;;;5071320;28;20219;-75
2021/05/08 06:35:15;;;;;;;10.17;5.47;;;;;;;;;;5069302;28;20233;-75
2021/05/08 06:37:41;;;;;;;9.93;5.70;;;;;;;;;;5069921;28;20215;-75
2021/05/08 06:40:08;;;;;;;13.07;5.83;;;;;;;;;;5074494;28;20199;-75
2021/05/08 06:42:35;;;;;;;10.10;5.57;;;;;;;;;;5061930;28;20227;-75
2021/05/08 06:45:02;;;;;;;11.60;6.17;;;;;;;;;;5052685;28;20261;-74
2021/05/08 06:47:29;;;;;;;9.67;5.50;;;;;;;;;;5053461;28;20286;-75
2021/05/08 06:49:56;;;;;;;13.27;5.93;;;;;;;;;;5072733;28;20232;-75
2021/05/08 06:52:23;;;;;;;11.20;5.80;;;;;;;;;;5071734;28;20630;-76
2021/05/08 06:54:50;;;;;;;10.20;5.27;;;;;;;;;;5073251;28;20773;-76
2021/05/08 06:57:16;;;;;;;10.90;5.87;;;;;;;;;;5073674;28;20321;-75
2021/05/08 06:59:43;;;;;;;11.27;6.17;;;;;;;;;;5073712;28;20266;-76
2021/05/08 07:02:10;;;;;;;10.30;5.60;;;;;;;;;;5082822;28;20251;-76
2021/05/08 07:04:37;;;;;;;9.37;5.60;;;;;;;;;;5089197;28;20666;-76
2021/05/08 07:07:04;;;;;;;11.70;5.73;;;;;;;;;;5052921;28;20322;-75
2021/05/08 07:09:31;;;;;;;11.07;5.70;;;;;;;;;;5052735;28;20648;-75
2021/05/08 07:11:57;;;;;;;15.13;5.77;;;;;;;;;;5058953;28;20279;-75
2021/05/08 07:14:24;;;;;;;11.27;5.73;;;;;;;;;;5072953;28;20254;-75
2021/05/08 07:16:51;;;;;;;12.57;6.10;;;;;;;;;;5073580;28;20238;-75
2021/05/08 07:19:17;;;;;;;10.63;5.40;;;;;;;;;;5071165;28;20340;-75
2021/05/08 07:21:45;;;;;;;9.20;5.03;;;;;;;;;;5067062;28;20350;-75
2021/05/08 07:24:12;;;;;;;14.27;5.30;;;;;;;;;;5067112;28;20337;-75
2021/05/08 07:26:38;;;;;;;12.93;4.80;;;;;;;;;;5071191;28;20305;-75
2021/05/08 07:29:05;;;;;;;12.53;5.47;;;;;;;;;;5071888;28;20545;-75
2021/05/08 07:31:32;;;;;;;9.10;4.73;;;;;;;;;;5070128;28;20322;-75
2021/05/08 07:33:58;;;;;;;8.70;4.47;;;;;;;;;;5069286;28;20219;-75
2021/05/08 07:36:25;;;;;;;12.33;4.40;;;;;;;;;;5069366;28;20329;-75
2021/05/08 07:38:56;;;;;;;8.77;4.40;;;;;;;;;;5065120;28;20249;-75
2021/05/08 07:41:22;;;;;;;11.33;4.87;;;;;;;;;;5070103;28;20226;-75
2021/05/08 07:43:49;;;;;;;11.13;4.20;;;;;;;;;;5071168;28;20726;-74
2021/05/08 07:46:16;;;;;;;13.00;4.70;;;;;;;;;;5071333;28;20226;-75
2021/05/08 07:48:45;;;;;;;7.37;4.07;;;;;;;;;;5064362;28;20324;-75
2021/05/08 07:51:11;;;;;;;8.33;4.03;;;;;;;;;;5069104;28;20195;-75
2021/05/08 07:53:38;;;;;;;9.53;4.03;;;;;;;;;;5070715;28;20258;-75
2021/05/08 07:56:06;;;;;;;11.10;3.47;;;;;;;;;;5067057;28;20278;-75
2021/05/08 07:58:33;;;;;;;5.93;3.83;;;;;;;;;;5069642;28;20206;-75
2021/05/08 08:00:59;;;;;;;8.97;3.77;;;;;;;;;;5071128;28;20255;-75
2021/05/08 08:03:26;;;;;;;7.43;3.47;;;;;;;;;;5070652;28;20282;-75
2021/05/08 08:05:53;;;;;;;7.53;3.30;;;;;;;;;;5061439;28;20716;-76
2021/05/08 08:08:20;;;;;;;6.93;3.00;;;;;;;;;;5059590;28;20619;-75
2021/05/08 08:10:46;;;;;;;8.90;3.67;;;;;;;;;;5061855;28;20265;-75
2021/05/08 08:13:14;;;;;;;9.23;3.40;;;;;;;;;;5064079;28;20218;-74
2021/05/08 08:15:41;;;;;;;6.13;3.20;;;;;;;;;;5059419;28;20198;-75
2021/05/08 08:18:09;;;;;;;7.78;3.22;;;;;;;;;;5064302;28;20282;-75
2021/05/08 08:20:36;;;;;;;5.78;3.33;;;;;;;;;;5067062;28;20199;-76
2021/05/08 08:23:02;;;;;;;8.65;2.88;;;;;;;;;;5063582;28;20270;-76
2021/05/08 08:25:29;;;;;;;6.70;2.80;;;;;;;;;;5073579;28;20290;-75
2021/05/08 08:27:56;;;;;;;6.75;2.20;;;;;;;;;;5070315;28;20714;-76
2021/05/08 08:30:23;;;;;;;8.07;2.53;;;;;;;;;;5059557;28;20215;-76
2021/05/08 08:32:50;;;;;;;6.28;2.63;;;;;;;;;;5071999;28;20950;-75
2021/05/08 08:35:17;;;;;;;6.40;2.75;;;;;;;;;;5060845;28;20285;-75
2021/05/08 08:37:43;;;;;;;7.22;2.47;;;;;;;;;;5064443;28;20666;-75
2021/05/08 08:40:11;;;;;;;7.82;2.80;;;;;;;;;;5061740;28;20444;-75
2021/05/08 08:42:38;;;;;;;4.07;2.60;;;;;;;;;;5061716;28;20237;-75
2021/05/08 08:45:05;;;;;;;6.22;2.60;;;;;;;;;;5061953;28;20283;-75
2021/05/08 08:47:32;;;;;;;4.53;2.22;;;;;;;;;;5066619;28;20656;-75
2021/05/08 08:50:00;;;;;;;5.53;2.45;;;;;;;;;;5075911;28;20282;-75
2021/05/08 08:52:27;;;;;;;4.47;2.33;;;;;;;;;;5070402;28;20230;-75
2021/05/08 08:54:55;;;;;;;6.18;2.75;;;;;;;;;;5057139;28;20687;-75
2021/05/08 08:57:26;;;;;;;7.60;4.15;;;;;;;;;;5069046;28;20331;-75
2021/05/08 08:59:54;;;;;;;6.95;4.80;;;;;;;;;;5061972;28;20224;-76
2021/05/08 09:02:21;;;;;;;6.55;3.10;;;;;;;;;;5060508;28;20846;-75
2021/05/08 09:04:49;;;;;;;6.25;3.28;;;;;;;;;;5063971;28;20195;-75
2021/05/08 09:07:16;;;;;;;10.98;4.20;;;;;;;;;;5061862;28;20238;-75
2021/05/08 09:09:44;;;;;;;6.53;3.35;;;;;;;;;;5065324;28;20282;-75
2021/05/08 09:12:13;;;;;;;6.13;2.38;;;;;;;;;;5069006;28;20224;-75
2021/05/08 09:14:40;;;;;;;5.40;2.35;;;;;;;;;;5068260;28;20229;-75
2021/05/08 09:17:10;;;;;;;4.63;2.40;;;;;;;;;;5069127;28;20674;-75
2021/05/08 09:19:38;;;;;;;7.60;2.70;;;;;;;;;;5062087;28;20238;-74
2021/05/08 09:22:20;;;;;;;6.82;2.70;;;;;;;;;;5054275;28;20235;-75
2021/05/08 09:24:54;;;;;;;6.13;2.63;;;;;;;;;;5064804;28;20687;-76
2021/05/08 09:27:32;;;;;;;8.07;2.63;;;;;;;;;;5063485;28;20226;-76
2021/05/08 09:30:13;;;;;;;8.82;3.00;;;;;;;;;;5063488;28;20260;-75
2021/05/08 09:32:41;;;;;;;4.57;2.17;;;;;;;;;;5068018;28;20287;-73
2021/05/08 09:35:09;;;;;;;6.15;2.40;;;;;;;;;;5058725;28;20223;-73
2021/05/08 09:37:36;;;;;;;4.18;2.25;;;;;;;;;;5066082;28;20294;-74
2021/05/08 09:40:17;;;;;;;5.35;2.30;;;;;;;;;;5057920;28;20227;-75
2021/05/08 09:42:45;;;;;;;5.68;2.42;;;;;;;;;;5058606;28;20688;-74
2021/05/08 09:45:12;;;;;;;5.93;3.47;;;;;;;;;;5053907;28;20287;-75
2021/05/08 09:47:39;;;;;;;7.50;4.13;;;;;;;;;;5061540;28;20228;-74
2021/05/08 09:50:06;;;;;;;6.07;3.90;;;;;;;;;;5065523;28;20207;-75
2021/05/08 09:52:47;;;;;;;4.72;3.53;;;;;;;;;;5070149;28;20227;-74
2021/05/08 09:55:15;;;;;;;6.55;3.10;;;;;;;;;;5068895;28;20278;-75
2021/05/08 09:57:55;;;;;;;5.10;2.42;;;;;;;;;;5070049;28;20207;-75
2021/05/08 10:00:35;;;;;;;8.40;2.95;;;;;;;;;;5069688;28;20319;-75
2021/05/08 10:03:02;;;;;;;6.63;3.05;;;;;;;;;;5069267;28;20686;-74
2021/05/08 10:05:29;;;;;;;3.75;2.35;;;;;;;;;;5069822;28;20223;-75
2021/05/08 10:07:56;;;;;;;7.32;2.50;;;;;;;;;;5061847;28;20195;-75
2021/05/08 10:10:22;;;;;;;5.03;2.60;;;;;;;;;;5066216;28;20269;-75
2021/05/08 10:12:50;;;;;;;5.88;2.22;;;;;;;;;;5064355;28;20257;-75
2021/05/08 10:15:20;;;;;;;6.32;2.20;;;;;;;;;;5066110;28;20278;-75
2021/05/08 10:17:48;;;;;;;2.88;1.77;;;;;;;;;;5057085;28;20623;-74
2021/05/08 10:20:16;;;;;;;5.10;2.25;;;;;;;;;;5063144;28;20723;-75
2021/05/08 10:22:44;;;;;;;2.85;2.20;;;;;;;;;;5072854;28;20264;-75
2021/05/08 10:25:11;;;;;;;3.92;1.88;;;;;;;;;;5066986;28;20251;-74
2021/05/08 10:27:39;;;;;;;6.47;2.00;;;;;;;;;;5067521;28;20227;-75
2021/05/08 10:30:12;;;;;;;5.18;2.30;;;;;;;;;;5069505;28;20207;-75
2021/05/08 10:32:39;;;;;;;6.97;2.10;;;;;;;;;;5070046;28;20195;-74
2021/05/08 10:35:07;;;;;;;5.68;2.47;;;;;;;;;;5065511;28;20593;-75
2021/05/08 10:37:33;;;;;;;6.75;2.28;;;;;;;;;;5066511;28;20226;-74
2021/05/08 10:40:02;;;;;;;4.88;2.10;;;;;;;;;;5064949;28;20228;-75
2021/05/08 10:42:33;;;;;;;4.22;2.25;;;;;;;;;;5062745;28;20645;-74
2021/05/08 10:45:00;;;;;;;6.43;2.22;;;;;;;;;;5071151;28;20631;-75
2021/05/08 10:47:42;;;;;;;3.47;2.40;;;;;;;;;;5093364;28;20203;-76
2021/05/08 10:50:22;;;;;;;4.50;2.10;;;;;;;;;;5064454;28;20250;-74
2021/05/08 10:53:05;;;;;;;6.53;2.00;;;;;;;;;;5072985;28;20227;-73
2021/05/08 10:55:42;;;;;;;3.47;1.83;;;;;;;;;;5064047;28;20252;-74
2021/05/08 10:58:42;;;;;;;6.20;2.00;;;;;;;;;;5071577;28;20729;-75
2021/05/08 11:01:09;;;;;;;3.50;1.80;;;;;;;;;;5076463;28;20265;-74
2021/05/08 11:03:54;;;;;;;5.47;2.03;;;;;;;;;;5087701;28;20191;-74
2021/05/08 11:06:23;;;;;;;5.80;2.03;;;;;;;;;;5071493;28;20203;-74
2021/05/08 11:08:50;;;;;;;4.32;2.80;;;;;;;;;;5071765;28;20226;-77
2021/05/08 11:11:18;;;;;;;4.43;2.72;;;;;;;;;;5065353;28;20210;-76
2021/05/08 11:13:46;;;;;;;2.28;1.67;;;;;;;;;;5077426;28;20361;-76
2021/05/08 11:16:13;;;;;;;4.53;1.90;;;;;;;;;;5053448;28;20204;-76
2021/05/08 11:18:41;;;;;;;5.22;2.20;;;;;;;;;;5073849;28;20289;-75
2021/05/08 11:21:28;;;;;;;3.78;1.70;;;;;;;;;;5079616;28;20612;-76
2021/05/08 11:23:57;;;;;;;4.75;2.30;;;;;;;;;;5059648;28;20196;-75
2021/05/08 11:26:34;;;;;;;6.10;2.10;;;;;;;;;;5074015;28;20219;-74
2021/05/08 11:29:01;;;;;;;2.22;1.50;;;;;;;;;;5063567;28;20625;-75
2021/05/08 11:31:29;;;;;;;4.03;2.40;;;;;;;;;;5069224;28;20218;-75
2021/05/08 11:34:04;;;;;;;5.38;1.73;;;;;;;;;;5066315;28;20211;-75
2021/05/08 11:36:31;;;;;;;3.30;1.77;;;;;;;;;;5065783;28;20230;-74
2021/05/08 11:39:08;;;;;;;2.92;1.50;;;;;;;;;;5069692;28;20282;-75
2021/05/08 11:41:37;;;;;;;3.17;1.60;;;;;;;;;;5070133;28;20226;-76
2021/05/08 11:44:04;;;;;;;2.28;1.60;;;;;;;;;;5067173;28;20191;-76
2021/05/08 11:46:33;;;;;;;2.50;1.77;;;;;;;;;;5064765;28;20757;-76
2021/05/08 11:48:59;;;;;;;2.58;1.52;;;;;;;;;;5070388;28;20210;-76
2021/05/08 11:51:26;;;;;;;4.43;1.63;;;;;;;;;;5068369;28;20206;-75
2021/05/08 11:54:10;;;;;;;18.80;2.60;;;;;;;;;;5068704;28;20322;-76
2021/05/08 11:56:37;;;;;;;2.45;1.77;;;;;;;;;;5066232;28;20592;-75
2021/05/08 11:59:05;;;;;;;3.42;2.10;;;;;;;;;;5062053;28;20286;-76
2021/05/08 12:01:32;;;;;;;4.20;1.90;;;;;;;;;;5075265;28;20710;-76
2021/05/08 12:04:00;;;;;;;4.15;1.83;;;;;;;;;;5071551;28;20202;-76
2021/05/08 12:06:26;;;;;;;4.40;1.80;;;;;;;;;;5064536;28;20278;-76
2021/05/08 12:08:55;;;;;;;3.47;1.73;;;;;;;;;;5055075;28;20622;-76
2021/05/08 12:11:22;;;;;;;2.83;1.63;;;;;;;;;;5062584;28;20238;-76
2021/05/08 12:13:49;;;;;;;3.05;1.70;;;;;;;;;;5069940;28;20348;-77
2021/05/08 12:16:16;;;;;;;2.30;1.50;;;;;;;;;;5071379;28;20218;-76
2021/05/08 12:18:43;;;;;;;5.65;1.77;;;;;;;;;;5068769;28;20344;-76
2021/05/08 12:21:17;;;;;;;4.22;1.75;;;;;;;;;;5056877;28;20284;-76
2021/05/08 12:23:43;;;;;;;3.75;1.80;;;;;;;;;;5067615;28;20666;-76
2021/05/08 12:26:15;;;;;;;3.45;1.50;;;;;;;;;;5065785;28;20250;-76
2021/05/08 12:28:53;;;;;;;4.10;1.73;;;;;;;;;;5066678;28;20678;-77
2021/05/08 12:31:24;;;;;;;3.75;1.73;;;;;;;;;;5061228;28;21096;-77
2021/05/08 12:33:52;;;;;;;5.85;1.58;;;;;;;;;;5065450;28;20245;-76
2021/05/08 12:36:21;;;;;;;2.08;1.58;;;;;;;;;;5065681;28;20207;-75
2021/05/08 12:38:48;;;;;;;4.05;1.67;;;;;;;;;;5070493;28;20206;-75
2021/05/08 12:41:28;;;;;;;2.78;1.90;;;;;;;;;;5067001;28;20195;-75
2021/05/08 12:44:19;;;;;;;2.85;1.70;;;;;;;;;;5063048;28;20560;-76
2021/05/08 12:46:57;;;;;;;6.72;2.17;;;;;;;;;;5054035;28;20656;-76
2021/05/08 12:49:25;;;;;;;3.28;1.63;;;;;;;;;;5062224;28;20206;-75
2021/05/08 12:51:51;;;;;;;2.83;1.80;;;;;;;;;;5070599;28;20198;-76
2021/05/08 12:54:22;;;;;;;3.70;1.98;;;;;;;;;;5071071;28;20219;-76
2021/05/08 12:56:49;;;;;;;2.13;1.58;;;;;;;;;;5069436;28;20195;-76
2021/05/08 12:59:26;;;;;;;2.80;1.60;;;;;;;;;;5069830;28;20203;-75
2021/05/08 13:01:54;;;;;;;3.33;1.63;;;;;;;;;;5069953;28;20284;-76
2021/05/08 13:04:37;;;;;;;3.38;1.80;;;;;;;;;;5062774;28;20229;-76
2021/05/08 13:07:18;;;;;;;2.70;1.58;;;;;;;;;;5069626;28;20195;-76
2021/05/08 13:09:45;;;;;;;5.25;1.85;;;;;;;;;;5069413;28;20195;-76
2021/05/08 13:12:18;;;;;;;2.65;1.90;;;;;;;;;;5066641;28;20299;-75
2021/05/08 13:14:45;;;;;;;3.33;1.95;;;;;;;;;;5069060;28;21001;-76
2021/05/08 13:17:12;;;;;;;4.15;1.60;;;;;;;;;;5070959;28;20674;-77
2021/05/08 13:19:39;;;;;;;3.75;1.65;;;;;;;;;;5070732;28;20199;-76
2021/05/08 13:22:06;;;;;;;2.95;1.50;;;;;;;;;;5067185;28;20238;-77
2021/05/08 13:24:33;;;;;;;3.13;1.50;;;;;;;;;;5068875;28;20299;-76
2021/05/08 13:27:00;;;;;;;3.05;1.45;;;;;;;;;;5065293;28;20226;-77
2021/05/08 13:29:27;;;;;;;3.90;1.85;;;;;;;;;;5067926;28;20693;-77
2021/05/08 13:31:54;;;;;;;3.78;1.75;;;;;;;;;;5062180;28;20246;-76
2021/05/08 13:34:21;;;;;;;2.67;1.50;;;;;;;;;;5065224;28;20771;-76
2021/05/08 13:36:50;;;;;;;2.30;1.52;;;;;;;;;;5060778;28;20286;-76
2021/05/08 13:39:17;;;;;;;3.65;1.55;;;;;;;;;;5067392;28;20226;-76
2021/05/08 13:41:44;;;;;;;2.65;1.55;;;;;;;;;;5066498;28;20613;-76
2021/05/08 13:44:11;;;;;;;3.47;1.60;;;;;;;;;;5066177;28;20681;-76
2021/05/08 13:46:38;;;;;;;3.55;1.77;;;;;;;;;;5065554;28;20314;-76
2021/05/08 13:49:05;;;;;;;4.88;1.90;;;;;;;;;;5062899;28;20227;-76
2021/05/08 13:51:31;;;;;;;2.95;1.50;;;;;;;;;;5059958;28;20195;-76
2021/05/08 13:53:59;;;;;;;3.08;1.88;;;;;;;;;;5068850;28;20384;-76
2021/05/08 13:56:26;;;;;;;4.50;1.70;;;;;;;;;;5072558;28;20358;-76
2021/05/08 13:58:53;;;;;;;2.53;1.40;;;;;;;;;;5064479;28;20301;-76
2021/05/08 14:01:19;;;;;;;3.40;1.60;;;;;;;;;;5068996;28;20236;-76
2021/05/08 14:03:46;;;;;;;2.53;1.42;;;;;;;;;;5063681;28;20245;-76
2021/05/08 14:06:14;;;;;;;3.97;1.70;;;;;;;;;;5070692;28;20238;-76
2021/05/08 14:08:43;;;;;;;4.32;1.80;;;;;;;;;;5072664;28;20214;-76
2021/05/08 14:11:11;;;;;;;2.95;1.70;;;;;;;;;;5067550;28;20249;-76
2021/05/08 14:13:38;;;;;;;3.90;1.70;;;;;;;;;;5061892;28;20322;-76
2021/05/08 14:16:05;;;;;;;5.50;1.75;;;;;;;;;;5063849;28;20729;-76
2021/05/08 14:18:31;;;;;;;4.88;1.85;;;;;;;;;;5069050;28;20279;-76
2021/05/08 14:20:58;;;;;;;2.17;1.40;;;;;;;;;;5067287;28;20231;-77
2021/05/08 14:23:25;;;;;;;5.43;1.52;;;;;;;;;;5058859;28;20361;-77
2021/05/08 14:25:51;;;;;;;3.13;1.50;;;;;;;;;;5072754;28;20246;-76
2021/05/08 14:28:19;;;;;;;4.18;1.60;;;;;;;;;;5059465;28;20286;-77
2021/05/08 14:30:45;;;;;;;2.47;1.48;;;;;;;;;;5064522;28;20290;-76
2021/05/08 14:33:12;;;;;;;4.53;1.60;;;;;;;;;;5075251;28;20277;-76
2021/05/08 14:35:39;;;;;;;2.72;1.40;;;;;;;;;;5066732;28;20195;-76
2021/05/08 14:38:06;;;;;;;3.13;1.17;;;;;;;;;;5070777;28;20720;-76
2021/05/08 14:40:33;;;;;;;3.65;1.60;;;;;;;;;;5062547;28;20199;-77
2021/05/08 14:42:59;;;;;;;4.50;2.15;;;;;;;;;;5066330;28;20251;-78